createdAt,value
2022-11-18T00:01:48.099Z,12.50
2022-11-18T00:04:52.399Z,10.40
2022-11-18T00:07:57.155Z,15.60
2022-11-18T00:11:08.536Z,12.57
2022-11-18T00:14:21.539Z,17.27
2022-11-18T00:17:24.855Z,12.38
2022-11-18T00:20:28.122Z,15.65
2022-11-18T00:23:34.026Z,15.35
2022-11-18T00:26:38.519Z,15.50
2022-11-18T00:29:43.473Z,17.02
2022-11-18T00:32:46.910Z,15.40
2022-11-18T00:35:54.839Z,9.63
2022-11-18T00:39:00.172Z,16.80
2022-11-18T00:42:20.679Z,13.60
2022-11-18T00:45:24.447Z,13.02
2022-11-18T00:48:28.357Z,12.57
2022-11-18T00:51:31.635Z,16.23
2022-11-18T00:54:36.241Z,16.52
2022-11-18T00:57:39.451Z,15.82
2022-11-18T01:00:43.066Z,16.15
2022-11-18T01:03:46.864Z,16.77
2022-11-18T01:06:50.116Z,16.65
2022-11-18T01:09:54.653Z,16.23
2022-11-18T01:13:15.324Z,17.08
2022-11-18T01:16:20.555Z,18.05
2022-11-18T01:19:26.901Z,17.38
2022-11-18T01:22:30.311Z,16.98
2022-11-18T01:25:36.967Z,19.73
2022-11-18T01:28:40.597Z,17.83
2022-11-18T01:32:09.301Z,16.30
2022-11-18T01:35:11.707Z,19.70
2022-11-18T01:38:15.492Z,20.23
2022-11-18T01:41:21.731Z,19.85
2022-11-18T01:45:09.474Z,18.77
2022-11-18T01:48:16.993Z,25.98
2022-11-18T01:51:26.058Z,21.63
2022-11-18T01:54:35.064Z,24.02
2022-11-18T01:57:42.718Z,20.73
2022-11-18T02:00:45.949Z,18.33
2022-11-18T02:03:58.931Z,20.08
2022-11-18T02:07:08.556Z,21.15
2022-11-18T02:10:20.108Z,22.50
2022-11-18T02:13:28.822Z,19.95
2022-11-18T02:16:44.184Z,19.58
2022-11-18T02:20:21.018Z,23.80
2022-11-18T02:24:01.970Z,23.42
2022-11-18T02:27:41.954Z,27.33
2022-11-18T02:30:54.737Z,24.95
2022-11-18T02:34:04.822Z,22.85
2022-11-18T02:37:16.738Z,20.83
2022-11-18T02:40:25.583Z,24.02
2022-11-18T02:43:32.864Z,25.23
2022-11-18T02:46:41.225Z,25.27
2022-11-18T02:49:49.359Z,26.75
2022-11-18T02:52:58.148Z,27.98
2022-11-18T02:56:03.826Z,38.65
2022-11-18T02:59:07.443Z,32.25
2022-11-18T03:02:17.288Z,18.98
2022-11-18T03:05:27.934Z,26.20
2022-11-18T03:08:38.096Z,28.38
2022-11-18T03:11:50.996Z,32.47
2022-11-18T03:15:03.096Z,22.90
2022-11-18T03:18:17.605Z,28.08
2022-11-18T03:21:28.227Z,29.25
2022-11-18T03:24:34.695Z,19.55
2022-11-18T03:27:46.049Z,24.80
2022-11-18T03:30:56.862Z,27.42
2022-11-18T03:34:07.622Z,19.63
2022-11-18T03:37:15.235Z,22.40
2022-11-18T03:40:22.570Z,18.50
2022-11-18T03:43:32.235Z,19.48
2022-11-18T03:46:39.606Z,13.18
2022-11-18T03:49:47.165Z,19.05
2022-11-18T03:52:52.741Z,21.92
2022-11-18T03:56:03.029Z,19.80
2022-11-18T03:59:11.557Z,16.65
2022-11-18T04:02:21.279Z,16.42
2022-11-18T04:05:26.801Z,20.05
2022-11-18T04:08:39.075Z,13.93
2022-11-18T04:12:01.836Z,17.92
2022-11-18T04:15:06.049Z,19.75
2022-11-18T04:18:12.565Z,19.73
2022-11-18T04:21:17.415Z,19.38
2022-11-18T04:24:21.064Z,19.38
2022-11-18T04:27:24.297Z,14.38
2022-11-18T04:30:29.237Z,14.52
2022-11-18T04:35:07.087Z,14.60
2022-11-18T04:38:10.346Z,16.40
2022-11-18T04:41:13.682Z,18.48
2022-11-18T04:44:16.939Z,17.33
2022-11-18T04:47:20.358Z,19.77
2022-11-18T04:50:26.145Z,16.85
2022-11-18T04:53:29.380Z,14.98
2022-11-18T04:56:33.495Z,16.50
2022-11-18T04:59:36.799Z,16.08
2022-11-18T05:02:39.977Z,12.45
2022-11-18T05:05:44.776Z,13.23
2022-11-18T05:08:48.299Z,12.07
2022-11-18T05:12:09.268Z,10.23
2022-11-18T05:15:13.667Z,11.13
2022-11-18T05:18:20.395Z,10.57
2022-11-18T05:21:30.508Z,11.75
2022-11-18T05:24:36.993Z,8.85
2022-11-18T05:27:40.191Z,9.18
2022-11-18T05:30:46.421Z,11.40
2022-11-18T05:33:49.686Z,9.02
2022-11-18T05:36:54.324Z,10.48
2022-11-18T05:39:57.941Z,9.70
2022-11-18T05:43:12.182Z,7.90
2022-11-18T05:46:15.445Z,9.77
2022-11-18T05:49:19.073Z,11.80
2022-11-18T05:52:23.986Z,11.45
2022-11-18T05:55:32.863Z,11.05
2022-11-18T05:58:39.556Z,11.68
2022-11-18T06:01:47.293Z,9.55
2022-11-18T06:04:56.202Z,12.45
2022-11-18T06:08:00.760Z,11.85
2022-11-18T06:11:04.761Z,11.48
2022-11-18T06:14:12.596Z,12.32
2022-11-18T06:17:20.387Z,10.63
2022-11-18T06:23:33.125Z,12.82
2022-11-18T06:26:36.900Z,13.73
2022-11-18T06:29:43.166Z,14.55
2022-11-18T06:32:48.504Z,10.43
2022-11-18T06:35:54.754Z,9.98
2022-11-18T06:39:06.666Z,13.98
2022-11-18T06:42:33.105Z,30.17
2022-11-18T06:45:37.427Z,13.43
2022-11-18T06:48:40.596Z,12.27
2022-11-18T06:51:43.970Z,11.73
2022-11-18T06:54:51.663Z,13.88
2022-11-18T06:58:00.183Z,15.05
2022-11-18T07:01:13.222Z,14.07
2022-11-18T07:04:16.970Z,15.10
2022-11-18T07:07:21.838Z,10.93
2022-11-18T07:10:26.902Z,9.05
2022-11-18T07:13:32.396Z,8.90
2022-11-18T07:16:38.790Z,7.60
2022-11-18T07:19:47.617Z,6.05
2022-11-18T07:22:56.523Z,6.70
2022-11-18T07:26:02.554Z,7.07
2022-11-18T07:29:07.165Z,8.18
2022-11-18T07:32:10.870Z,5.95
2022-11-18T07:35:15.185Z,8.45
2022-11-18T07:38:20.770Z,6.40
2022-11-18T07:41:27.068Z,6.13
2022-11-18T07:44:30.615Z,7.72
2022-11-18T07:47:35.322Z,7.53
2022-11-18T07:50:46.887Z,7.50
2022-11-18T07:53:51.035Z,7.05
2022-11-18T07:56:56.547Z,6.88
2022-11-18T08:00:01.261Z,6.90
2022-11-18T08:03:12.460Z,7.55
2022-11-18T08:06:19.939Z,8.13
2022-11-18T08:09:23.337Z,9.15
2022-11-18T08:12:45.052Z,8.00
2022-11-18T08:15:50.638Z,6.70
2022-11-18T08:19:01.461Z,5.43
2022-11-18T08:22:09.351Z,4.60
2022-11-18T08:25:14.093Z,5.15
2022-11-18T08:28:22.548Z,4.40
2022-11-18T08:31:29.792Z,4.32
2022-11-18T08:34:34.644Z,4.28
2022-11-18T08:37:43.844Z,5.85
2022-11-18T08:40:52.160Z,4.60
2022-11-18T08:43:56.798Z,4.32
2022-11-18T08:47:04.101Z,4.20
2022-11-18T08:50:10.049Z,4.15
2022-11-18T08:53:17.263Z,4.03
2022-11-18T08:56:24.164Z,3.97
2022-11-18T08:59:32.429Z,4.55
2022-11-18T09:02:40.668Z,4.32
2022-11-18T09:05:45.788Z,3.80
2022-11-18T09:08:50.158Z,6.97
2022-11-18T09:11:54.434Z,4.50
2022-11-18T09:15:13.408Z,4.38
2022-11-18T09:18:25.768Z,4.47
2022-11-18T09:24:34.514Z,33.33
2022-11-18T09:27:44.545Z,4.53
2022-11-18T09:30:56.955Z,4.13
2022-11-18T09:34:01.611Z,4.93
2022-11-18T09:37:08.342Z,4.03
2022-11-18T09:40:19.004Z,12.35
2022-11-18T09:43:35.401Z,3.97
2022-11-18T09:46:56.651Z,18.88
2022-11-18T09:53:56.441Z,2.95
2022-11-18T10:00:15.597Z,2.22
2022-11-18T10:03:29.489Z,2.22
2022-11-18T10:06:35.057Z,2.13
2022-11-18T10:09:44.787Z,1.75
2022-11-18T10:12:55.796Z,1.85
2022-11-18T10:16:15.244Z,1.40
2022-11-18T10:19:31.912Z,1.70
2022-11-18T10:22:48.220Z,1.63
2022-11-18T10:25:51.365Z,1.27
2022-11-18T10:28:54.505Z,1.20
2022-11-18T10:35:25.535Z,1.52
2022-11-18T10:38:28.956Z,1.67
2022-11-18T10:41:40.387Z,1.70
2022-11-18T10:44:46.828Z,1.70
2022-11-18T10:48:02.190Z,1.60
2022-11-18T10:51:22.077Z,1.65
2022-11-18T10:54:30.390Z,1.70
2022-11-18T10:57:41.909Z,1.73
2022-11-18T11:00:49.038Z,1.60
2022-11-18T11:04:01.536Z,1.92
2022-11-18T11:07:26.851Z,2.33
2022-11-18T11:10:36.560Z,2.20
2022-11-18T11:13:47.645Z,1.70
2022-11-18T11:17:01.706Z,1.83
2022-11-18T11:20:16.121Z,2.30
2022-11-18T11:23:23.875Z,2.00
2022-11-18T11:30:09.715Z,2.03
2022-11-18T11:33:30.984Z,2.20
2022-11-18T11:36:48.365Z,2.33
2022-11-18T11:43:24.963Z,2.22
2022-11-18T11:47:09.089Z,2.60
2022-11-18T11:50:20.284Z,2.35
2022-11-18T11:53:42.627Z,2.30
2022-11-18T11:56:54.683Z,2.35
2022-11-18T12:00:06.996Z,2.30
2022-11-18T12:03:50.268Z,2.30
2022-11-18T12:06:56.944Z,2.65
2022-11-18T12:10:19.909Z,2.33
2022-11-18T12:13:47.937Z,2.35
2022-11-18T12:17:01.200Z,2.72
2022-11-18T12:20:37.935Z,2.50
2022-11-18T12:23:45.293Z,2.13
2022-11-18T12:26:51.002Z,2.45
2022-11-18T12:30:00.012Z,2.13
2022-11-18T12:33:04.111Z,2.30
2022-11-18T12:36:11.285Z,2.17
2022-11-18T12:39:49.575Z,2.67
2022-11-18T12:43:19.459Z,2.58
2022-11-18T12:46:51.491Z,2.40
2022-11-18T12:50:19.339Z,2.10
2022-11-18T12:53:37.713Z,2.20
2022-11-18T12:56:42.303Z,2.40
2022-11-18T12:59:46.687Z,2.47
2022-11-18T13:03:03.477Z,2.50
2022-11-18T13:06:16.855Z,2.05
2022-11-18T13:09:30.500Z,2.08
2022-11-18T13:12:34.850Z,2.10
2022-11-18T13:16:01.215Z,2.50
2022-11-18T13:19:08.764Z,2.05
2022-11-18T13:27:13.250Z,2.00
2022-11-18T13:31:17.748Z,2.03
2022-11-18T13:34:41.851Z,1.85
2022-11-18T13:37:53.803Z,2.95
2022-11-18T13:41:12.496Z,2.35
2022-11-18T13:44:31.899Z,2.00
2022-11-18T13:47:40.150Z,1.70
2022-11-18T13:51:01.064Z,1.88
2022-11-18T13:54:09.827Z,1.80
2022-11-18T13:57:23.165Z,2.00
2022-11-18T14:00:36.419Z,2.72
2022-11-18T14:03:53.630Z,1.77
2022-11-18T14:07:19.424Z,1.55
2022-11-18T14:10:35.356Z,1.88
2022-11-18T14:13:54.569Z,2.40
2022-11-18T14:17:06.675Z,2.00
2022-11-18T14:20:19.406Z,1.70
2022-11-18T14:23:29.735Z,2.13
2022-11-18T14:26:36.186Z,2.50
2022-11-18T14:29:55.976Z,2.03
2022-11-18T14:33:23.172Z,2.40
2022-11-18T14:36:27.258Z,2.83
2022-11-18T14:39:34.178Z,2.97
2022-11-18T14:42:39.768Z,2.38
2022-11-18T14:45:46.313Z,2.38
2022-11-18T14:48:50.141Z,3.30
2022-11-18T14:51:54.733Z,2.78
2022-11-18T14:55:04.834Z,3.10
2022-11-18T14:58:14.372Z,3.10
2022-11-18T15:01:18.095Z,3.40
2022-11-18T15:04:25.774Z,3.88
2022-11-18T15:07:30.536Z,3.55
2022-11-18T15:10:41.242Z,3.88
2022-11-18T15:13:47.024Z,4.45
2022-11-18T15:16:52.098Z,3.53
2022-11-18T15:19:58.238Z,5.50
2022-11-18T15:23:03.955Z,4.13
2022-11-18T15:26:19.078Z,5.72
2022-11-18T15:29:25.125Z,4.50
2022-11-18T15:32:35.975Z,10.07
2022-11-18T15:35:40.321Z,4.03
2022-11-18T15:38:45.298Z,11.38
2022-11-18T15:41:50.147Z,4.10
2022-11-18T15:44:55.249Z,4.18
2022-11-18T15:47:59.631Z,3.97
2022-11-18T15:51:06.496Z,4.63
2022-11-18T15:54:16.955Z,4.97
2022-11-18T15:57:22.518Z,4.85
2022-11-18T16:00:26.194Z,4.97
2022-11-18T16:03:30.036Z,6.13
2022-11-18T16:06:37.106Z,6.22
2022-11-18T16:10:03.703Z,7.32
2022-11-18T16:13:14.170Z,5.80
2022-11-18T16:16:45.581Z,6.93
2022-11-18T16:19:51.856Z,6.60
2022-11-18T16:23:00.212Z,6.95
2022-11-18T16:26:06.018Z,7.93
2022-11-18T16:29:35.862Z,6.82
2022-11-18T16:35:20.153Z,7.15
2022-11-18T16:38:32.219Z,6.47
2022-11-18T16:41:45.280Z,6.75
2022-11-18T16:44:49.879Z,7.53
2022-11-18T16:47:55.962Z,6.80
2022-11-18T16:51:22.317Z,7.07
2022-11-18T16:54:28.152Z,7.80
2022-11-18T16:57:40.539Z,8.05
2022-11-18T17:01:17.577Z,8.18
2022-11-18T17:04:42.123Z,7.53
2022-11-18T17:07:56.193Z,7.90
2022-11-18T17:11:17.673Z,8.27
2022-11-18T17:14:23.119Z,7.50
2022-11-18T17:17:28.109Z,7.80
2022-11-18T17:20:31.808Z,10.25
2022-11-18T17:23:37.430Z,10.30
2022-11-18T17:26:42.784Z,7.82
2022-11-18T17:29:50.540Z,6.95
2022-11-18T17:32:59.440Z,7.68
2022-11-18T17:36:04.381Z,7.95
2022-11-18T17:39:11.006Z,8.20
2022-11-18T17:42:18.989Z,9.35
2022-11-18T17:45:22.177Z,11.95
2022-11-18T17:48:27.329Z,14.32
2022-11-18T17:51:32.508Z,9.25
2022-11-18T17:54:37.137Z,9.68
2022-11-18T17:57:40.400Z,8.30
2022-11-18T18:00:45.014Z,6.80
2022-11-18T18:03:48.524Z,7.10
2022-11-18T18:06:53.495Z,9.32
2022-11-18T18:10:01.806Z,7.93
2022-11-18T18:13:25.196Z,8.90
2022-11-18T18:16:30.360Z,7.63
2022-11-18T18:19:36.515Z,8.07
2022-11-18T18:22:41.290Z,6.93
2022-11-18T18:25:47.328Z,7.38
2022-11-18T18:28:54.634Z,6.18
2022-11-18T18:31:59.086Z,5.78
2022-11-18T18:35:03.655Z,5.68
2022-11-18T18:38:08.564Z,6.53
2022-11-18T18:41:17.209Z,7.45
2022-11-18T18:44:22.501Z,6.93
2022-11-18T18:47:27.180Z,6.88
2022-11-18T18:50:32.427Z,7.50
2022-11-18T18:53:36.486Z,9.70
2022-11-18T18:56:46.001Z,8.38
2022-11-18T18:59:49.623Z,8.70
2022-11-18T19:02:57.142Z,8.93
2022-11-18T19:09:29.947Z,6.90
2022-11-18T19:12:44.267Z,8.65
2022-11-18T19:15:48.399Z,8.63
2022-11-18T19:18:52.435Z,5.43
2022-11-18T19:21:55.605Z,6.88
2022-11-18T19:25:01.430Z,5.28
2022-11-18T19:28:07.368Z,5.85
2022-11-18T19:31:13.171Z,5.03
2022-11-18T19:34:22.708Z,4.68
2022-11-18T19:37:33.525Z,6.25
2022-11-18T19:40:37.402Z,5.70
2022-11-18T19:43:42.344Z,4.20
2022-11-18T19:46:46.816Z,3.78
2022-11-18T19:50:11.423Z,4.70
2022-11-18T19:53:28.860Z,3.67
2022-11-18T19:56:32.559Z,3.97
2022-11-18T19:59:39.560Z,4.30
2022-11-18T20:02:42.923Z,4.93
2022-11-18T20:06:08.945Z,5.45
2022-11-18T20:09:13.291Z,5.43
2022-11-18T20:12:16.492Z,5.72
2022-11-18T20:15:21.563Z,4.97
2022-11-18T20:18:28.212Z,5.35
2022-11-18T20:21:33.060Z,5.73
2022-11-18T20:24:36.677Z,5.60
2022-11-18T20:27:43.917Z,5.82
2022-11-18T20:30:54.799Z,6.35
2022-11-18T20:33:59.349Z,5.95
2022-11-18T20:37:07.668Z,6.38
2022-11-18T20:40:12.176Z,6.15
2022-11-18T20:43:16.425Z,6.63
2022-11-18T20:46:22.315Z,9.02
2022-11-18T20:49:26.613Z,10.32
2022-11-18T20:52:29.880Z,10.00
2022-11-18T20:55:39.476Z,10.70
2022-11-18T20:58:44.418Z,10.85
2022-11-18T21:01:49.077Z,9.68
2022-11-18T21:04:52.295Z,11.65
2022-11-18T21:07:56.912Z,11.93
2022-11-18T21:11:02.306Z,9.20
2022-11-18T21:14:25.562Z,6.93
2022-11-18T21:17:31.256Z,7.10
2022-11-18T21:20:51.791Z,5.80
2022-11-18T21:23:56.225Z,9.75
2022-11-18T21:27:01.492Z,7.05
2022-11-18T21:30:06.055Z,7.25
2022-11-18T21:33:10.747Z,5.47
2022-11-18T21:36:14.508Z,5.88
2022-11-18T21:39:18.442Z,4.10
2022-11-18T21:42:22.302Z,4.63
2022-11-18T21:45:25.524Z,7.45
2022-11-18T21:48:30.447Z,4.43
2022-11-18T21:51:34.610Z,3.78
2022-11-18T21:54:38.471Z,5.15
2022-11-18T21:57:42.702Z,4.78
2022-11-18T22:00:46.151Z,5.18
2022-11-18T22:03:55.317Z,8.73
2022-11-18T22:06:59.778Z,5.15
2022-11-18T22:10:03.226Z,15.70
2022-11-18T22:13:07.806Z,9.40
2022-11-18T22:16:13.555Z,6.63
2022-11-18T22:19:18.595Z,5.22
2022-11-18T22:22:21.799Z,4.40
2022-11-18T22:25:25.187Z,4.18
2022-11-18T22:28:28.805Z,5.35
2022-11-18T22:35:05.151Z,5.22
2022-11-18T22:38:09.789Z,4.57
2022-11-18T22:41:35.435Z,6.13
2022-11-18T22:44:39.200Z,6.32
2022-11-18T22:47:42.919Z,6.57
2022-11-18T22:50:57.113Z,6.20
2022-11-18T22:57:26.619Z,6.28
2022-11-18T23:00:33.836Z,6.13
2022-11-18T23:03:37.834Z,5.83
2022-11-18T23:06:42.570Z,6.10
2022-11-18T23:09:46.146Z,6.28
2022-11-18T23:13:10.078Z,8.00
2022-11-18T23:16:14.232Z,6.22
2022-11-18T23:19:18.636Z,7.18
2022-11-18T23:22:24.010Z,5.28
2022-11-18T23:25:27.484Z,5.15
2022-11-18T23:28:33.248Z,6.28
2022-11-18T23:31:40.229Z,5.88
2022-11-18T23:34:47.060Z,5.97
2022-11-18T23:37:51.982Z,5.60
2022-11-18T23:41:00.303Z,5.85
2022-11-18T23:44:11.109Z,5.50
2022-11-18T23:47:20.745Z,4.93
2022-11-18T23:50:36.611Z,4.97
2022-11-18T23:53:54.090Z,5.18
2022-11-18T23:57:10.568Z,5.28
